Time;durP1;ratioP1;P1;durP2;ratioP2;P2;SDS_P1;SDS_P2;PMS_P1;PMS_P2;Temp;Humidity;BMP_temperature;BMP_pressure;BME280_temperature;BME280_humidity;BME280_pressure;Samples;Min_cycle;Max_cycle;Signal;HPM_P1;HPM_P2
2022/04/24 00:02:13;;;;;;;23.12;12.30;;;;;;;4.89;71.78;100590.36;1682822;83;21627;-89
2022/04/24 00:04:40;;;;;;;20.97;11.18;;;;;;;4.89;71.90;100578.20;1692179;83;21177;-86
2022/04/24 00:07:09;;;;;;;19.40;10.93;;;;;;;4.89;71.94;100582.11;1646897;84;23482;-88
2022/04/24 00:09:38;;;;;;;22.00;12.00;;;;;;;4.91;72.04;100586.09;1662682;84;21617;-86
2022/04/24 00:12:06;;;;;;;20.90;12.63;;;;;;;4.93;72.22;100584.02;1632570;86;21016;-87
2022/04/24 00:14:35;;;;;;;26.15;12.85;;;;;;;4.99;72.29;100586.02;1656943;83;21706;-86
2022/04/24 00:17:03;;;;;;;21.27;11.15;;;;;;;5.02;72.27;100587.05;1657740;85;21082;-87
2022/04/24 00:19:33;;;;;;;21.12;11.95;;;;;;;5.06;72.31;100581.56;1657881;85;21887;-87
2022/04/24 00:21:58;;;;;;;18.62;12.13;;;;;;;5.11;72.38;100577.45;1656474;85;21098;-87
2022/04/24 00:24:25;;;;;;;18.05;12.55;;;;;;;5.18;72.35;100579.50;1677102;83;21125;-87
2022/04/24 00:26:54;;;;;;;20.17;12.80;;;;;;;5.21;72.38;100573.09;1672705;84;21125;-86
2022/04/24 00:29:21;;;;;;;22.80;13.80;;;;;;;5.28;72.47;100569.47;1667493;83;21105;-87
2022/04/24 00:31:48;;;;;;;25.40;14.23;;;;;;;5.34;72.44;100564.50;1657166;85;22617;-88
2022/04/24 00:34:15;;;;;;;24.35;14.35;;;;;;;5.38;72.47;100565.99;1657660;85;21069;-88
2022/04/24 00:36:43;;;;;;;21.80;14.07;;;;;;;5.43;72.45;100564.91;1656997;85;21140;-88
2022/04/24 00:39:11;;;;;;;23.65;13.55;;;;;;;5.49;72.45;100565.58;1657489;85;21211;-88
2022/04/24 00:41:46;;;;;;;24.18;14.75;;;;;;;5.53;72.47;100562.27;1662009;84;21124;-87
2022/04/24 00:44:16;;;;;;;21.60;14.05;;;;;;;5.57;72.40;100563.75;1670056;84;21913;-88
2022/04/24 00:47:08;;;;;;;25.90;13.65;;;;;;;5.61;72.41;100565.69;1684630;84;21224;-85
2022/04/24 00:49:35;;;;;;;21.37;13.72;;;;;;;5.64;72.37;100563.61;1661548;84;21078;-87
2022/04/24 00:52:02;;;;;;;24.32;14.60;;;;;;;5.63;72.34;100561.41;1665640;83;21073;-86
2022/04/24 00:54:28;;;;;;;23.50;14.30;;;;;;;5.66;72.36;100567.17;1676486;84;21075;-87
2022/04/24 00:56:55;;;;;;;21.85;13.83;;;;;;;5.65;72.40;100570.20;1681497;84;21791;-86
2022/04/24 00:59:22;;;;;;;26.25;15.18;;;;;;;5.65;72.36;100570.62;1673110;84;21574;-85
2022/04/24 01:01:49;;;;;;;21.82;14.43;;;;;;;5.64;72.41;100564.48;1687347;83;21106;-86
2022/04/24 01:04:16;;;;;;;26.02;15.35;;;;;;;5.65;72.35;100570.62;1658993;84;21152;-86
2022/04/24 01:06:43;;;;;;;31.55;16.37;;;;;;;5.66;72.40;100565.86;1669203;85;21055;-86
2022/04/24 01:09:15;;;;;;;22.73;14.60;;;;;;;5.67;72.38;100561.13;1660124;84;21840;-86
2022/04/24 01:11:43;;;;;;;21.15;15.50;;;;;;;5.70;72.42;100564.27;1704940;83;21125;-86
2022/04/24 01:14:10;;;;;;;24.20;15.45;;;;;;;5.73;72.43;100560.49;1711497;83;21147;-86
2022/04/24 01:16:37;;;;;;;21.23;14.40;;;;;;;5.75;72.46;100564.05;1705477;83;21748;-87
2022/04/24 01:19:05;;;;;;;22.30;14.63;;;;;;;5.77;72.45;100561.09;1700399;83;21100;-85
2022/04/24 01:21:34;;;;;;;21.93;14.43;;;;;;;5.79;72.46;100558.13;1699782;83;21757;-86
2022/04/24 01:24:06;;;;;;;23.35;15.10;;;;;;;5.80;72.48;100553.36;1704371;83;21037;-86
2022/04/24 01:26:33;;;;;;;23.30;15.18;;;;;;;5.81;72.50;100556.05;1683399;83;21097;-87
2022/04/24 01:29:00;;;;;;;24.75;15.50;;;;;;;5.83;72.49;100549.16;1681034;83;21468;-87
2022/04/24 01:31:27;;;;;;;25.37;15.13;;;;;;;5.81;72.50;100550.81;1702108;83;21180;-87
2022/04/24 01:33:54;;;;;;;23.50;13.62;;;;;;;5.82;72.59;100552.61;1699896;83;21747;-86
2022/04/24 01:36:21;;;;;;;23.32;13.98;;;;;;;5.87;72.63;100542.77;1691945;83;21658;-86
2022/04/24 01:38:48;;;;;;;21.07;13.90;;;;;;;5.93;72.63;100554.76;1692742;83;21131;-86
2022/04/24 01:41:15;;;;;;;24.15;15.20;;;;;;;5.96;72.58;100549.28;1692542;83;21611;-85
2022/04/24 01:43:42;;;;;;;25.57;14.85;;;;;;;5.96;72.48;100551.89;1690748;83;21145;-86
2022/04/24 01:46:09;;;;;;;23.83;14.55;;;;;;;6.00;72.56;100545.95;1680518;85;21955;-86
2022/04/24 01:48:36;;;;;;;24.75;15.08;;;;;;;6.06;72.48;100549.22;1662841;84;22182;-88
2022/04/24 01:51:04;;;;;;;22.02;14.03;;;;;;;6.09;72.42;100548.48;1659236;85;21200;-87
2022/04/24 01:53:31;;;;;;;22.73;13.62;;;;;;;6.10;72.37;100537.17;1667333;84;21100;-87
2022/04/24 01:55:58;;;;;;;24.05;14.05;;;;;;;6.14;72.48;100540.41;1665337;84;21106;-87
2022/04/24 01:58:30;;;;;;;21.87;14.23;;;;;;;6.16;72.47;100534.83;1661459;85;21813;-87
2022/04/24 02:00:58;;;;;;;20.20;13.72;;;;;;;6.20;72.47;100531.50;1672359;83;21093;-86
2022/04/24 02:03:25;;;;;;;19.82;13.05;;;;;;;6.21;72.44;100531.56;1670154;85;21106;-85
2022/04/24 02:05:52;;;;;;;22.82;13.53;;;;;;;6.25;72.46;100527.34;1689648;83;21689;-87
2022/04/24 02:08:19;;;;;;;20.68;13.53;;;;;;;6.28;72.38;100526.14;1669445;84;21686;-86
2022/04/24 02:10:46;;;;;;;21.60;14.40;;;;;;;6.29;72.36;100525.32;1657715;83;22612;-86
2022/04/24 02:13:13;;;;;;;21.55;14.00;;;;;;;6.31;72.35;100521.05;1712043;83;21044;-86
2022/04/24 02:15:40;;;;;;;23.18;14.28;;;;;;;6.31;72.24;100518.42;1685645;83;21632;-86
2022/04/24 02:18:09;;;;;;;22.25;14.18;;;;;;;6.29;72.25;100516.17;1707481;83;21550;-86
2022/04/24 02:20:35;;;;;;;21.93;13.90;;;;;;;6.28;72.18;100515.69;1703968;83;21091;-86
2022/04/24 02:23:02;;;;;;;20.05;14.18;;;;;;;6.23;72.19;100516.83;1693170;84;21789;-87
2022/04/24 02:25:30;;;;;;;22.50;14.85;;;;;;;6.23;72.37;100512.91;1675287;84;21185;-87
2022/04/24 02:27:57;;;;;;;20.97;14.20;;;;;;;6.27;72.40;100507.78;1711325;83;21060;-87
2022/04/24 02:30:26;;;;;;;21.12;14.38;;;;;;;6.33;72.37;100512.84;1709497;83;21078;-86
2022/04/24 02:32:56;;;;;;;22.50;14.00;;;;;;;6.33;72.31;100513.27;1713090;83;21183;-86
2022/04/24 02:35:22;;;;;;;23.80;14.05;;;;;;;6.33;72.32;100514.58;1695238;83;21803;-86
2022/04/24 02:37:49;;;;;;;20.90;13.45;;;;;;;6.36;72.32;100515.97;1684304;84;21169;-86
2022/04/24 02:40:21;;;;;;;23.73;13.45;;;;;;;6.36;72.24;100510.75;1671535;83;21085;-87
2022/04/24 02:42:45;;;;;;;19.05;12.73;;;;;;;6.38;72.31;100511.69;1686064;81;21082;-86
2022/04/24 02:45:14;;;;;;;20.10;12.70;;;;;;;6.40;72.32;100505.70;1678171;84;21047;-86
2022/04/24 02:47:40;;;;;;;18.10;12.33;;;;;;;6.45;72.31;100499.76;1651530;84;22080;-87
2022/04/24 02:50:07;;;;;;;18.87;12.15;;;;;;;6.48;72.26;100497.27;1685693;83;21094;-87
2022/04/24 02:52:48;;;;;;;17.50;12.53;;;;;;;6.50;72.28;100498.22;1659704;84;21070;-88
2022/04/24 02:55:15;;;;;;;16.40;12.03;;;;;;;6.54;72.21;100499.67;1673470;85;21137;-88
2022/04/24 02:57:43;;;;;;;19.80;12.05;;;;;;;6.53;72.13;100491.77;1665797;84;21067;-88
2022/04/24 03:00:19;;;;;;;16.30;11.38;;;;;;;6.49;72.12;100493.80;1689345;84;21174;-88
2022/04/24 03:02:45;;;;;;;;;;;;;;;6.47;72.15;100491.13;1674745;84;21137;-88
2022/04/24 03:05:13;;;;;;;22.87;12.18;;;;;;;6.49;72.16;100493.38;1707101;83;20253;-87
2022/04/24 03:07:41;;;;;;;17.30;12.20;;;;;;;6.51;72.17;100498.24;1668291;84;21130;-88
2022/04/24 03:10:08;;;;;;;16.85;11.63;;;;;;;6.50;72.15;100488.64;1651680;85;21101;-88
2022/04/24 03:12:39;;;;;;;20.30;13.13;;;;;;;6.51;72.15;100493.02;1704276;83;22278;-87
2022/04/24 03:15:08;;;;;;;17.62;12.45;;;;;;;6.52;72.19;100489.58;1693510;83;21578;-87
2022/04/24 03:17:35;;;;;;;16.40;12.28;;;;;;;6.56;72.18;100484.05;1685391;83;21067;-86
2022/04/24 03:20:04;;;;;;;17.02;12.30;;;;;;;6.58;72.13;100481.95;1672588;83;21246;-86
2022/04/24 03:22:33;;;;;;;17.60;11.93;;;;;;;6.58;72.06;100469.30;1669459;85;21176;-87
2022/04/24 03:25:00;;;;;;;16.45;11.85;;;;;;;6.58;72.06;100470.61;1647960;84;21761;-86
2022/04/24 03:27:27;;;;;;;15.68;11.03;;;;;;;6.55;72.04;100463.95;1686170;83;21136;-86
2022/04/24 03:29:54;;;;;;;17.65;12.13;;;;;;;6.53;72.04;100466.53;1689087;83;21065;-86
2022/04/24 03:32:21;;;;;;;21.27;12.30;;;;;;;6.53;72.07;100463.92;1677985;84;21749;-87
2022/04/24 03:34:48;;;;;;;17.23;11.57;;;;;;;6.53;72.10;100463.92;1659835;84;21374;-86
2022/04/24 03:37:14;;;;;;;15.78;11.22;;;;;;;6.53;72.06;100464.31;1657262;85;21801;-86
2022/04/24 03:39:41;;;;;;;15.72;10.68;;;;;;;6.52;72.12;100466.05;1682984;84;21062;-86
2022/04/24 03:42:08;;;;;;;16.90;11.97;;;;;;;6.51;72.11;100457.71;1660853;84;21064;-86
2022/04/24 03:44:35;;;;;;;17.10;11.88;;;;;;;6.52;72.14;100463.86;1684825;84;21050;-87
2022/04/24 03:47:03;;;;;;;15.85;11.75;;;;;;;6.55;72.19;100454.80;1676639;83;21111;-87
2022/04/24 03:49:30;;;;;;;15.10;11.22;;;;;;;6.66;72.35;100460.42;1669277;83;21753;-85
2022/04/24 03:51:56;;;;;;;15.98;10.55;;;;;;;6.99;72.80;100452.89;1678579;83;21119;-86
2022/04/24 03:54:23;;;;;;;14.40;10.18;;;;;;;7.47;72.69;100445.30;1688983;84;21719;-86
2022/04/24 03:56:50;;;;;;;15.05;10.10;;;;;;;7.87;72.09;100446.16;1655120;86;21082;-88
2022/04/24 03:59:17;;;;;;;13.30;10.85;;;;;;;8.05;71.39;100444.55;1647246;85;21109;-86
2022/04/24 04:01:44;;;;;;;17.87;11.40;;;;;;;8.27;71.02;100446.05;1686712;83;21265;-85
2022/04/24 04:04:11;;;;;;;17.50;11.57;;;;;;;8.26;70.29;100439.44;1664809;84;21145;-89
2022/04/24 04:06:38;;;;;;;15.15;10.93;;;;;;;8.38;70.58;100439.38;1654202;86;21153;-88
2022/04/24 04:09:05;;;;;;;15.88;10.63;;;;;;;8.59;70.02;100431.69;1676175;83;21736;-88
2022/04/24 04:11:31;;;;;;;15.90;12.10;;;;;;;8.70;69.96;100430.25;1691298;83;21097;-89
2022/04/24 04:13:58;;;;;;;14.93;11.25;;;;;;;8.89;69.50;100436.00;1672583;84;22613;-89
2022/04/24 04:16:25;;;;;;;14.05;10.80;;;;;;;9.05;69.18;100435.56;1660493;84;21133;-87
2022/04/24 04:18:52;;;;;;;14.53;10.58;;;;;;;8.97;68.54;100434.88;1653065;84;21074;-87
2022/04/24 04:21:19;;;;;;;17.00;11.40;;;;;;;8.91;68.56;100431.23;1686958;83;21089;-88
2022/04/24 04:23:46;;;;;;;14.28;10.78;;;;;;;8.96;68.34;100427.44;1687606;83;22038;-88
2022/04/24 04:26:12;;;;;;;15.70;11.55;;;;;;;8.84;68.16;100434.58;1659823;84;22584;-89
2022/04/24 04:28:50;;;;;;;14.55;10.40;;;;;;;9.00;68.67;100429.73;1662930;85;21052;-86
2022/04/24 04:31:17;;;;;;;14.68;11.15;;;;;;;9.81;69.30;100429.52;1685529;83;21066;-87
2022/04/24 04:33:45;;;;;;;14.55;11.38;;;;;;;10.34;68.53;100433.76;1684198;84;22080;-88
2022/04/24 04:36:12;;;;;;;14.87;10.78;;;;;;;11.32;68.12;100430.80;1669265;84;21133;-87
2022/04/24 04:38:38;;;;;;;13.53;10.13;;;;;;;12.08;67.40;100429.33;1687661;84;21792;-86
2022/04/24 04:41:07;;;;;;;14.28;10.68;;;;;;;13.25;67.30;100430.63;1644901;85;21086;-86
2022/04/24 04:43:36;;;;;;;13.83;10.32;;;;;;;14.45;65.78;100436.74;1652581;85;21276;-86
2022/04/24 04:46:03;;;;;;;12.80;10.18;;;;;;;15.28;64.01;100439.20;1673272;84;21165;-86
2022/04/24 04:48:30;;;;;;;10.60;8.88;;;;;;;16.00;62.65;100425.01;1650690;84;21160;-87
2022/04/24 04:50:56;;;;;;;10.08;9.08;;;;;;;16.86;61.53;100424.68;1658489;85;21878;-87
2022/04/24 04:53:23;;;;;;;10.75;9.30;;;;;;;17.65;60.45;100419.63;1636665;85;21156;-88
2022/04/24 04:56:06;;;;;;;11.78;9.03;;;;;;;18.60;59.14;100419.48;1680235;84;21372;-90
2022/04/24 04:58:41;;;;;;;9.13;8.18;;;;;;;19.49;57.96;100422.19;1664704;84;21079;-90
2022/04/24 05:01:10;;;;;;;9.23;8.20;;;;;;;20.47;56.76;100425.27;1669372;83;21153;-92
2022/04/24 05:03:37;;;;;;;10.30;8.58;;;;;;;21.32;55.59;100421.14;1707175;82;21467;-91
2022/04/24 05:06:04;;;;;;;11.10;8.50;;;;;;;22.01;54.01;100425.64;1682669;83;21103;-96
2022/04/24 05:08:31;;;;;;;9.35;8.13;;;;;;;22.48;52.33;100426.13;1669850;85;21054;-90
2022/04/24 05:11:00;;;;;;;12.37;8.33;;;;;;;22.55;50.42;100438.91;1689588;83;21026;-89
2022/04/24 05:13:30;;;;;;;10.85;7.85;;;;;;;22.32;50.10;100451.17;1661797;84;21088;-88
2022/04/24 05:15:56;;;;;;;9.40;6.55;;;;;;;22.21;48.09;100441.19;1646656;86;21834;-84
2022/04/24 05:18:22;;;;;;;10.30;7.62;;;;;;;21.62;46.89;100435.15;1687366;83;21061;-87
2022/04/24 05:20:50;;;;;;;8.78;7.17;;;;;;;21.62;46.89;100435.15;1676810;83;21192;-89
2022/04/24 05:23:17;;;;;;;10.45;7.25;;;;;;;19.62;45.45;100450.43;1674666;84;21073;-89
2022/04/24 05:25:44;;;;;;;8.53;7.35;;;;;;;17.70;46.46;100455.55;1669110;84;21128;-89
2022/04/24 05:28:11;;;;;;;10.93;7.58;;;;;;;16.62;47.26;100454.02;1682606;84;21749;-88
2022/04/24 05:30:38;;;;;;;8.13;6.72;;;;;;;15.74;47.98;100465.73;1680287;83;21301;-89
2022/04/24 05:33:05;;;;;;;9.88;7.90;;;;;;;15.05;48.53;100464.33;1675670;83;21096;-88
2022/04/24 05:35:32;;;;;;;11.63;7.85;;;;;;;14.45;49.34;100470.75;1687465;83;21114;-88
2022/04/24 05:37:59;;;;;;;8.00;7.03;;;;;;;13.94;49.92;100470.87;1683012;84;21089;-88
2022/04/24 05:40:26;;;;;;;8.38;7.17;;;;;;;13.69;50.79;100476.00;1647675;85;22000;-87
2022/04/24 05:42:54;;;;;;;9.70;6.85;;;;;;;13.61;51.30;100472.41;1684320;84;21045;-87
2022/04/24 05:45:28;;;;;;;8.93;6.62;;;;;;;13.52;51.36;100478.50;1668482;83;21097;-87
2022/04/24 05:47:55;;;;;;;9.58;7.00;;;;;;;13.45;51.73;100471.38;1692355;83;21570;-89
2022/04/24 05:50:23;;;;;;;11.57;7.72;;;;;;;13.33;51.85;100472.17;1681767;83;21081;-90
2022/04/24 05:52:49;;;;;;;10.25;6.95;;;;;;;13.19;52.00;100473.34;1674616;83;21811;-88
2022/04/24 05:55:53;;;;;;;8.88;6.90;;;;;;;13.08;52.27;100472.75;1670059;84;21105;-90
2022/04/24 05:58:20;;;;;;;10.17;7.27;;;;;;;13.08;52.65;100470.11;1675779;84;21102;-90
2022/04/24 06:00:49;;;;;;;9.85;7.55;;;;;;;12.98;52.70;100461.21;1663111;84;21122;-89
2022/04/24 06:03:17;;;;;;;11.30;7.30;;;;;;;13.01;53.07;100465.22;1682528;84;21120;-92
2022/04/24 06:05:48;;;;;;;10.60;7.30;;;;;;;13.03;53.21;100466.12;1661456;84;21839;-90
2022/04/24 06:08:15;;;;;;;8.50;6.75;;;;;;;13.02;53.23;100465.66;1677848;82;21180;-89
2022/04/24 06:10:53;;;;;;;10.65;6.72;;;;;;;12.91;53.18;100465.97;1691328;82;21066;-89
2022/04/24 06:13:15;;;;;;;8.23;5.80;;;;;;;12.62;53.31;100463.45;1650923;84;21042;-88
2022/04/24 06:15:45;;;;;;;10.23;7.12;;;;;;;12.26;53.26;100457.28;1690939;84;21085;-87
2022/04/24 06:18:11;;;;;;;8.43;6.15;;;;;;;12.13;53.63;100476.02;1649103;85;21819;-87
2022/04/24 06:20:39;;;;;;;7.28;5.87;;;;;;;11.94;54.03;100474.86;1668389;84;21136;-87
2022/04/24 06:23:06;;;;;;;9.03;6.65;;;;;;;11.82;54.42;100474.22;1636852;85;21074;-88
2022/04/24 06:25:34;;;;;;;9.03;6.28;;;;;;;11.73;54.68;100474.48;1681773;84;21586;-88
2022/04/24 06:28:03;;;;;;;11.35;6.10;;;;;;;11.67;54.87;100477.91;1661810;84;21102;-90
2022/04/24 06:30:49;;;;;;;7.97;5.60;;;;;;;11.58;55.11;100472.08;1651917;84;23533;-87
2022/04/24 06:33:18;;;;;;;12.00;6.20;;;;;;;11.61;55.39;100477.81;1683915;84;21043;-88
2022/04/24 06:35:47;;;;;;;13.45;6.60;;;;;;;11.66;55.53;100478.35;1669330;84;21101;-89
2022/04/24 06:38:14;;;;;;;10.05;6.53;;;;;;;11.76;55.54;100480.69;1668526;83;21101;-88
2022/04/24 06:40:45;;;;;;;9.75;6.45;;;;;;;11.68;55.47;100478.38;1665441;84;21891;-88
2022/04/24 06:43:14;;;;;;;11.38;7.53;;;;;;;11.55;55.60;100477.28;1671233;84;21781;-88
2022/04/24 06:45:45;;;;;;;10.18;6.40;;;;;;;11.46;55.88;100476.69;1675573;84;21196;-87
2022/04/24 06:48:20;;;;;;;10.58;6.10;;;;;;;11.44;56.14;100477.09;1684187;83;21088;-88
2022/04/24 06:50:46;;;;;;;;;;;;;;;11.47;56.19;100477.16;1668538;84;21125;-93
2022/04/24 06:53:20;;;;;;;10.70;6.33;;;;;;;11.42;56.37;100480.14;1687095;83;20364;-86
2022/04/24 06:55:49;;;;;;;10.50;6.47;;;;;;;11.46;56.50;100481.08;1675199;84;21804;-90
2022/04/24 06:58:17;;;;;;;9.93;5.53;;;;;;;11.41;56.57;100477.06;1682397;83;21090;-91
2022/04/24 07:00:46;;;;;;;12.00;6.50;;;;;;;11.40;56.67;100475.72;1684794;83;21124;-87
2022/04/24 07:03:20;;;;;;;9.75;6.92;;;;;;;11.36;56.79;100469.95;1647840;85;21089;-86
2022/04/24 07:05:50;;;;;;;11.30;7.00;;;;;;;11.33;57.03;100480.42;1683065;84;21089;-86
2022/04/24 07:08:17;;;;;;;11.73;5.85;;;;;;;11.33;57.13;100470.75;1697430;83;22003;-90
2022/04/24 07:10:44;;;;;;;8.55;5.67;;;;;;;11.39;57.34;100467.34;1660359;85;21062;-91
2022/04/24 07:13:21;;;;;;;10.95;4.80;;;;;;;11.53;57.47;100476.38;1681567;84;21145;-88
2022/04/24 07:15:51;;;;;;;9.95;5.35;;;;;;;11.62;57.18;100471.70;1685530;84;21724;-89
2022/04/24 07:18:21;;;;;;;16.97;5.58;;;;;;;11.66;57.29;100474.84;1687203;83;21187;-86
2022/04/24 07:20:48;;;;;;;9.45;5.33;;;;;;;11.72;57.39;100472.28;1686000;84;22061;-87
2022/04/24 07:23:15;;;;;;;10.82;5.58;;;;;;;11.83;57.46;100477.73;1675350;84;21042;-87
2022/04/24 07:25:44;;;;;;;10.53;5.97;;;;;;;11.83;57.29;100475.98;1689733;84;22199;-86
2022/04/24 07:28:14;;;;;;;16.57;5.78;;;;;;;11.79;57.37;100483.83;1667706;84;21131;-88
2022/04/24 07:30:42;;;;;;;13.45;5.40;;;;;;;11.77;57.42;100485.12;1670787;84;21087;-86
2022/04/24 07:33:08;;;;;;;10.75;5.42;;;;;;;11.66;57.32;100477.47;1671242;85;21798;-90
2022/04/24 07:35:38;;;;;;;8.83;5.35;;;;;;;11.60;57.67;100481.30;1676472;83;21454;-91
2022/04/24 07:38:11;;;;;;;14.73;5.85;;;;;;;11.62;57.86;100478.29;1621109;85;21105;-86
2022/04/24 07:40:43;;;;;;;12.93;6.33;;;;;;;11.56;57.76;100467.63;1686734;83;21067;-91
2022/04/24 07:43:08;;;;;;;14.75;6.22;;;;;;;11.50;57.99;100464.89;1687774;84;21061;-88
2022/04/24 07:45:47;;;;;;;13.43;6.53;;;;;;;11.58;58.23;100483.03;1690299;83;21702;-93
2022/04/24 07:48:15;;;;;;;11.90;6.00;;;;;;;11.52;58.26;100478.54;1689456;84;21578;-90
2022/04/24 07:50:52;;;;;;;10.08;6.10;;;;;;;11.46;58.43;100467.47;1677148;84;21098;-90
2022/04/24 07:53:20;;;;;;;13.40;6.28;;;;;;;11.54;58.59;100475.94;1655814;85;21001;-94
2022/04/24 07:55:50;;;;;;;11.97;5.78;;;;;;;11.59;58.77;100472.95;1659833;85;21229;-96
2022/04/24 07:58:19;;;;;;;16.55;5.87;;;;;;;11.64;58.69;100474.80;1665752;85;21951;-96
2022/04/24 08:04:46;;;;;;;16.57;6.70;;;;;;;11.63;58.48;100466.86;1642776;84;21184;-95
2022/04/24 08:07:15;;;;;;;17.98;12.88;;;;;;;11.62;58.74;100476.97;1631779;85;29206;-91
2022/04/24 08:09:42;;;;;;;11.43;6.28;;;;;;;11.61;58.63;100477.37;1652756;84;21161;-89
2022/04/24 08:12:09;;;;;;;10.82;5.92;;;;;;;11.58;58.71;100479.98;1639839;85;21815;-89
2022/04/24 08:14:36;;;;;;;12.03;4.87;;;;;;;11.61;58.63;100480.45;1677051;83;21117;-93
2022/04/24 08:17:03;;;;;;;13.10;5.72;;;;;;;11.65;58.50;100475.24;1683126;83;21073;-91
2022/04/24 08:23:10;;;;;;;12.55;5.12;;;;;;;11.76;58.46;100485.97;1681596;84;21214;-90
2022/04/24 08:25:55;;;;;;;;;;;;;;;;;;;;;
2022/04/24 08:28:18;;;;;;;13.95;5.60;;;;;;;11.90;58.39;100495.47;1566644;89;21056;-95
2022/04/24 08:30:46;;;;;;;11.83;7.10;;;;;;;11.87;58.20;100483.06;1590878;88;21131;-87
2022/04/24 08:33:23;;;;;;;;;;;;;;;;;;;;;
2022/04/24 08:35:45;;;;;;;11.35;4.78;;;;;;;11.99;58.04;100494.30;1593483;87;21108;-88
2022/04/24 08:38:26;;;;;;;12.82;5.40;;;;;;;12.01;57.82;100496.92;1590725;87;21648;-94
2022/04/24 08:40:52;;;;;;;10.35;6.75;;;;;;;12.04;57.58;100501.81;1622864;86;21113;-93
2022/04/24 08:43:32;;;;;;;10.32;4.97;;;;;;;12.08;57.65;100505.83;1629092;87;21095;-93
2022/04/24 08:51:40;;;;;;;9.35;5.08;;;;;;;12.06;57.33;100515.04;1624605;85;21782;-92
2022/04/24 08:54:12;;;;;;;12.65;5.12;;;;;;;12.03;57.28;100507.06;1639359;85;21093;-92
2022/04/24 08:59:54;;;;;;;10.08;4.60;;;;;;;12.00;57.13;100511.87;1625063;86;20462;-93
2022/04/24 09:02:22;;;;;;;9.15;4.90;;;;;;;11.98;57.21;100516.24;1583815;87;21091;-93
2022/04/24 09:04:55;;;;;;;12.90;8.35;;;;;;;11.99;57.41;100525.03;1607088;85;22063;-91
2022/04/24 09:07:24;;;;;;;12.63;8.28;;;;;;;11.95;57.40;100516.62;1680234;83;21090;-90
2022/04/24 09:09:53;;;;;;;12.78;6.53;;;;;;;11.96;57.28;100522.38;1650604;84;21661;-89
2022/04/24 09:12:25;;;;;;;11.00;5.20;;;;;;;11.99;57.33;100527.67;1624062;86;21206;-88
2022/04/24 09:15:05;;;;;;;11.93;8.43;;;;;;;11.92;57.31;100530.66;1647884;84;21150;-89
2022/04/24 09:17:36;;;;;;;12.50;6.65;;;;;;;11.96;57.48;100517.98;1663564;83;21713;-88
2022/04/24 09:20:23;;;;;;;11.78;9.00;;;;;;;12.06;57.87;100522.95;1669612;84;21100;-87
2022/04/24 09:22:51;;;;;;;15.32;6.70;;;;;;;12.13;57.80;100520.87;1656883;85;21200;-89
2022/04/24 09:25:20;;;;;;;10.53;6.08;;;;;;;12.21;57.69;100528.89;1692792;83;21109;-94
2022/04/24 09:27:53;;;;;;;9.75;6.30;;;;;;;12.21;57.43;100515.26;1658433;83;21122;-92
2022/04/24 09:30:25;;;;;;;12.95;5.70;;;;;;;12.16;57.58;100521.34;1675141;83;21900;-91
2022/04/24 09:32:54;;;;;;;9.38;5.53;;;;;;;12.19;57.57;100518.75;1702272;83;21179;-92
2022/04/24 09:35:27;;;;;;;14.05;5.65;;;;;;;12.21;57.49;100514.38;1678332;83;21173;-87
2022/04/24 09:38:13;;;;;;;11.30;5.78;;;;;;;12.15;57.42;100514.30;1672721;83;21290;-89
2022/04/24 09:40:50;;;;;;;12.28;6.45;;;;;;;12.11;57.45;100513.36;1678516;83;21046;-91
2022/04/24 09:43:22;;;;;;;11.43;5.70;;;;;;;12.09;57.36;100515.09;1648993;84;21275;-91
2022/04/24 09:45:57;;;;;;;11.80;5.95;;;;;;;12.08;57.37;100528.27;1659576;84;21108;-89
2022/04/24 09:48:25;;;;;;;12.53;6.33;;;;;;;12.12;57.43;100516.44;1678163;82;21164;-92
2022/04/24 09:50:54;;;;;;;12.45;5.80;;;;;;;12.19;57.73;100520.08;1646711;84;21109;-87
2022/04/24 09:53:24;;;;;;;14.15;6.53;;;;;;;12.31;57.65;100510.99;1650809;84;21102;-87
2022/04/24 09:56:04;;;;;;;10.08;6.67;;;;;;;12.41;57.44;100522.59;1699149;83;22643;-88
2022/04/24 09:58:25;;;;;;;9.18;5.80;;;;;;;12.41;57.32;100511.59;1685306;83;21308;-86
2022/04/24 10:00:52;;;;;;;9.33;5.97;;;;;;;12.43;57.29;100511.62;1671549;83;21133;-88
2022/04/24 10:03:20;;;;;;;11.73;6.45;;;;;;;12.40;57.21;100507.16;1647333;83;21244;-86
2022/04/24 10:05:48;;;;;;;13.53;6.90;;;;;;;12.39;57.34;100519.05;1650245;83;21162;-86
2022/04/24 10:08:17;;;;;;;12.70;8.78;;;;;;;12.42;57.32;100499.27;1669316;83;22656;-88
2022/04/24 10:10:46;;;;;;;13.13;6.15;;;;;;;12.43;57.48;100498.42;1624449;86;21631;-88
2022/04/24 10:13:23;;;;;;;10.85;6.50;;;;;;;12.50;57.61;100501.60;1615788;86;21165;-87
2022/04/24 10:16:12;;;;;;;11.28;6.80;;;;;;;12.57;57.60;100504.75;1587553;88;21164;-88
2022/04/24 10:18:55;;;;;;;13.22;6.03;;;;;;;12.56;57.28;100502.99;1613705;86;21292;-86
2022/04/24 10:21:55;;;;;;;9.63;6.80;;;;;;;12.53;57.43;100496.78;1592841;87;21815;-88
2022/04/24 10:24:22;;;;;;;10.10;6.85;;;;;;;12.55;57.33;100497.69;1571001;89;21245;-90
2022/04/24 10:26:57;;;;;;;12.43;6.30;;;;;;;12.52;57.44;100505.55;1575180;88;21767;-85
2022/04/24 10:29:24;;;;;;;9.25;6.33;;;;;;;12.51;57.33;100498.52;1621623;86;21154;-85
2022/04/24 10:31:51;;;;;;;15.05;6.10;;;;;;;12.49;57.39;100506.41;1628688;86;21149;-87
2022/04/24 10:34:19;;;;;;;14.58;7.22;;;;;;;12.46;57.53;100491.84;1635488;86;21790;-86
2022/04/24 10:37:01;;;;;;;9.65;6.17;;;;;;;12.44;57.21;100493.58;1620633;86;21092;-86
2022/04/24 10:39:33;;;;;;;10.23;6.30;;;;;;;12.38;57.27;100516.81;1628276;85;21058;-90
2022/04/24 10:42:02;;;;;;;7.33;5.72;;;;;;;12.30;57.38;100509.23;1627379;86;21080;-92
2022/04/24 10:44:29;;;;;;;10.13;6.80;;;;;;;12.24;57.67;100504.77;1623113;86;21080;-92
2022/04/24 10:47:04;;;;;;;11.88;6.47;;;;;;;12.22;57.67;100539.48;1625791;86;21823;-88
2022/04/24 10:49:47;;;;;;;18.98;6.30;;;;;;;12.15;57.59;100518.26;1659266;84;21583;-89
2022/04/24 10:52:12;;;;;;;11.85;6.58;;;;;;;12.14;57.76;100533.18;1667012;83;21156;-89
2022/04/24 10:54:45;;;;;;;8.25;5.20;;;;;;;12.15;57.84;100535.41;1642767;84;21145;-90
2022/04/24 10:57:41;;;;;;;;;;;;;;;;;;;;;
2022/04/24 11:00:19;;;;;;;;;;;;;;;;;;;;;
2022/04/24 11:05:53;;;;;;;;;;;;;;;;;;;;;
2022/04/24 11:08:21;;;;;;;8.15;4.92;;;;;;;11.51;58.23;100529.94;1513024;94;21169;-92
2022/04/24 11:13:30;;;;;;;13.93;5.67;;;;;;;11.35;58.84;100537.98;1559353;87;21108;-91
2022/04/24 11:16:00;;;;;;;;;;;;;;;11.29;59.11;100536.13;1617469;86;21089;-90
2022/04/24 11:18:29;;;;;;;13.30;5.92;;;;;;;11.32;59.34;100533.56;1646585;84;20200;-90
2022/04/24 11:21:01;;;;;;;13.30;6.00;;;;;;;11.27;59.38;100539.16;1681345;83;21097;-90
2022/04/24 11:23:43;;;;;;;10.88;6.08;;;;;;;11.21;59.36;100545.20;1675957;84;21163;-88
2022/04/24 11:26:12;;;;;;;9.63;5.72;;;;;;;11.11;59.50;100544.99;1683507;84;21844;-88
2022/04/24 11:28:48;;;;;;;12.63;6.25;;;;;;;11.00;59.69;100547.41;1575158;88;21648;-88
2022/04/24 11:31:22;;;;;;;12.73;6.25;;;;;;;11.00;60.00;100544.37;1643838;85;21862;-87
2022/04/24 11:34:07;;;;;;;14.35;6.40;;;;;;;10.99;60.10;100557.50;1695848;83;21103;-91
2022/04/24 11:36:37;;;;;;;12.15;6.25;;;;;;;11.03;60.16;100550.11;1707601;83;21069;-89
2022/04/24 11:39:07;;;;;;;13.88;6.30;;;;;;;11.01;60.22;100554.02;1703593;83;21924;-86
2022/04/24 11:41:35;;;;;;;15.70;6.75;;;;;;;11.05;60.43;100536.10;1690480;83;21733;-90
2022/04/24 11:52:57;;;;;;;12.80;6.30;;;;;;;11.21;60.52;100546.96;1666383;83;21169;-90
2022/04/24 11:56:01;;;;;;;11.48;6.20;;;;;;;11.25;60.55;100564.16;1702537;82;21119;-94
2022/04/24 11:58:02;;;;;;;11.65;5.85;;;;;;;11.12;60.21;100548.09;1620910;83;21090;-92
2022/04/24 12:00:55;;;;;;;;;;;;;;;;;;;;;
2022/04/24 12:03:15;;;;;;;13.62;6.90;;;;;;;10.89;60.31;100567.84;1644518;84;21087;-91
2022/04/24 12:05:55;;;;;;;9.78;5.40;;;;;;;10.79;60.44;100567.61;1658685;86;21956;-90
2022/04/24 12:08:17;;;;;;;18.62;6.03;;;;;;;10.69;60.48;100562.58;1683134;82;21557;-93
2022/04/24 12:10:45;;;;;;;10.15;6.50;;;;;;;10.60;60.79;100561.06;1646055;84;21183;-89